createdAt,value
2018-04-10T00:00:03.863Z,15.11
2018-04-10T00:01:12.950Z,15.2
2018-04-10T00:02:21.786Z,15.06
2018-04-10T00:03:30.619Z,15.11
2018-04-10T00:04:39.453Z,15.13
2018-04-10T00:05:48.289Z,15.11
2018-04-10T00:06:57.177Z,15.06
2018-04-10T00:08:06.289Z,15.06
2018-04-10T00:09:15.403Z,14.98
2018-04-10T00:10:24.241Z,14.98
2018-04-10T00:11:33.078Z,14.99
2018-04-10T00:12:41.910Z,15.13
2018-04-10T00:13:50.745Z,15.1
2018-04-10T00:14:59.580Z,15.07
2018-04-10T00:16:08.416Z,14.98
2018-04-10T00:17:17.252Z,15.11
2018-04-10T00:18:26.092Z,15.01
2018-04-10T00:19:35.201Z,15.02
2018-04-10T00:20:44.311Z,14.94
2018-04-10T00:21:53.146Z,14.91
2018-04-10T00:23:02.978Z,14.89
2018-04-10T00:24:12.071Z,14.94
2018-04-10T00:25:20.900Z,14.95
2018-04-10T00:26:29.733Z,14.92
2018-04-10T00:27:38.565Z,14.89
2018-04-10T00:28:47.398Z,14.88
2018-04-10T00:29:56.519Z,14.83
2018-04-10T00:31:05.354Z,14.89
2018-04-10T00:32:14.186Z,14.89
2018-04-10T00:33:23.022Z,14.84
2018-04-10T00:34:31.855Z,14.86
2018-04-10T00:35:40.689Z,14.81
2018-04-10T00:36:49.523Z,14.77
2018-04-10T00:37:58.359Z,14.81
2018-04-10T00:39:07.192Z,14.83
2018-04-10T00:40:16.025Z,14.84
2018-04-10T00:41:24.856Z,14.86
2018-04-10T00:42:33.689Z,14.75
2018-04-10T00:43:42.522Z,14.72
2018-04-10T00:44:51.356Z,14.77
2018-04-10T00:46:00.191Z,14.75
2018-04-10T00:47:09.073Z,14.78
2018-04-10T00:48:17.911Z,14.7
2018-04-10T00:49:26.743Z,14.69
2018-04-10T00:50:35.578Z,14.75
2018-04-10T00:51:44.693Z,14.73
2018-04-10T00:52:53.780Z,14.61
2018-04-10T00:54:02.612Z,14.62
2018-04-10T00:55:11.447Z,14.78
2018-04-10T00:56:20.283Z,14.6
2018-04-10T00:57:29.393Z,14.78
2018-04-10T00:58:38.601Z,14.64
2018-04-10T00:59:47.716Z,14.61
2018-04-10T01:00:56.824Z,14.64
2018-04-10T01:02:05.932Z,14.75
2018-04-10T01:03:14.769Z,14.69
2018-04-10T01:04:23.654Z,14.52
2018-04-10T01:05:32.493Z,14.62
2018-04-10T01:06:41.327Z,14.62
2018-04-10T01:07:50.437Z,14.65
2018-04-10T01:08:59.277Z,14.55
2018-04-10T01:10:08.159Z,14.61
2018-04-10T01:11:16.991Z,14.64
2018-04-10T01:12:25.824Z,14.57
2018-04-10T01:13:34.658Z,14.6
2018-04-10T01:14:43.492Z,14.61
2018-04-10T01:15:52.327Z,14.61
2018-04-10T01:17:01.159Z,14.51
2018-04-10T01:18:09.994Z,14.57
2018-04-10T01:19:18.829Z,14.61
2018-04-10T01:20:27.664Z,14.61
2018-04-10T01:21:36.599Z,14.6
2018-04-10T01:22:45.432Z,14.62
2018-04-10T01:23:54.266Z,14.54
2018-04-10T01:25:03.101Z,14.55
2018-04-10T01:26:12.481Z,14.54
2018-04-10T01:27:21.367Z,14.6
2018-04-10T01:28:30.473Z,14.64
2018-04-10T01:29:39.307Z,14.57
2018-04-10T01:30:48.142Z,14.62
2018-04-10T01:31:56.976Z,14.47
2018-04-10T01:33:05.965Z,14.62
2018-04-10T01:34:14.796Z,14.61
2018-04-10T01:35:23.631Z,14.62
2018-04-10T01:36:32.464Z,14.52
2018-04-10T01:37:41.297Z,14.6
2018-04-10T01:38:50.130Z,14.54
2018-04-10T01:39:58.964Z,14.58
2018-04-10T01:41:07.799Z,14.57
2018-04-10T01:42:16.634Z,14.62
2018-04-10T01:43:25.473Z,14.6
2018-04-10T01:44:34.582Z,14.62
2018-04-10T01:45:43.417Z,14.58
2018-04-10T01:46:52.255Z,14.57
2018-04-10T01:48:01.361Z,14.55
2018-04-10T01:49:10.194Z,14.55
2018-04-10T01:50:19.128Z,14.52
2018-04-10T01:51:28.235Z,14.55
2018-04-10T01:52:37.069Z,14.6
2018-04-10T01:53:45.906Z,14.57
2018-04-10T01:54:55.013Z,14.5
2018-04-10T01:56:03.946Z,14.58
2018-04-10T01:57:12.780Z,14.46
2018-04-10T01:58:21.613Z,14.5
2018-04-10T01:59:30.448Z,14.47
2018-04-10T02:00:39.560Z,14.52
2018-04-10T02:01:48.496Z,14.55
2018-04-10T02:02:57.330Z,14.47
2018-04-10T02:04:06.441Z,14.51
2018-04-10T02:05:15.275Z,14.52
2018-04-10T02:06:24.111Z,14.32
2018-04-10T02:07:32.944Z,14.4
2018-04-10T02:08:41.778Z,14.37
2018-04-10T02:09:50.610Z,14.4
2018-04-10T02:10:59.444Z,14.32
2018-04-10T02:12:08.279Z,14.36
2018-04-10T02:13:17.537Z,14.32
2018-04-10T02:14:26.377Z,14.33
2018-04-10T02:15:35.486Z,14.39
2018-04-10T02:16:44.319Z,14.28
2018-04-10T02:17:53.153Z,14.35
2018-04-10T02:19:02.140Z,14.32
2018-04-10T02:20:11.252Z,14.32
2018-04-10T02:21:20.087Z,14.32
2018-04-10T02:22:28.924Z,14.29
2018-04-10T02:23:38.034Z,14.28
2018-04-10T02:24:46.869Z,14.28
2018-04-10T02:25:55.703Z,14.29
2018-04-10T02:27:04.538Z,14.24
2018-04-10T02:28:13.370Z,14.22
2018-04-10T02:29:22.207Z,14.24
2018-04-10T02:30:31.094Z,14.25
2018-04-10T02:31:39.932Z,14.25
2018-04-10T02:32:49.046Z,14.21
2018-04-10T02:33:57.881Z,14.15
2018-04-10T02:35:07.275Z,14.14
2018-04-10T02:36:16.494Z,14.04
2018-04-10T02:37:25.330Z,14.15
2018-04-10T02:38:34.457Z,14.1
2018-04-10T02:39:43.298Z,14.06
2018-04-10T02:40:52.139Z,14.18
2018-04-10T02:42:01.128Z,14.15
2018-04-10T02:43:09.964Z,14.12
2018-04-10T02:44:18.800Z,14.12
2018-04-10T02:45:27.634Z,14.06
2018-04-10T02:46:36.470Z,14.1
2018-04-10T02:47:45.511Z,14.04
2018-04-10T02:48:54.627Z,14
2018-04-10T02:50:03.464Z,14.04
2018-04-10T02:51:12.299Z,14.02
2018-04-10T02:52:21.140Z,14.1
2018-04-10T02:53:29.980Z,14.02
2018-04-10T02:54:39.090Z,14
2018-04-10T02:55:47.921Z,13.95
2018-04-10T02:56:56.757Z,13.95
2018-04-10T02:58:05.595Z,14
2018-04-10T02:59:14.849Z,14.03
2018-04-10T03:00:23.686Z,13.97
2018-04-10T03:01:32.797Z,13.97
2018-04-10T03:02:41.631Z,13.89
2018-04-10T03:03:50.747Z,13.85
2018-04-10T03:04:59.581Z,13.88
2018-04-10T03:06:08.417Z,13.89
2018-04-10T03:07:17.253Z,13.95
2018-04-10T03:08:26.089Z,13.88
2018-04-10T03:09:34.923Z,13.92
2018-04-10T03:10:43.765Z,13.95
2018-04-10T03:11:52.595Z,13.85
2018-04-10T03:13:01.428Z,13.78
2018-04-10T03:14:10.261Z,13.79
2018-04-10T03:15:19.092Z,13.79
2018-04-10T03:16:27.927Z,13.81
2018-04-10T03:17:36.760Z,13.78
2018-04-10T03:18:45.596Z,13.77
2018-04-10T03:19:54.430Z,13.71
2018-04-10T03:21:03.267Z,13.71
2018-04-10T03:22:12.248Z,13.75
2018-04-10T03:23:21.357Z,13.79
2018-04-10T03:24:30.190Z,13.67
2018-04-10T03:25:39.024Z,13.77
2018-04-10T03:26:47.859Z,13.7
2018-04-10T03:27:56.794Z,13.75
2018-04-10T03:29:05.630Z,13.66
2018-04-10T03:30:14.466Z,13.66
2018-04-10T03:31:23.575Z,13.67
2018-04-10T03:32:32.410Z,13.64
2018-04-10T03:33:41.244Z,13.62
2018-04-10T03:34:50.356Z,13.52
2018-04-10T03:35:59.470Z,13.55
2018-04-10T03:37:08.589Z,13.55
2018-04-10T03:38:17.697Z,13.62
2018-04-10T03:39:26.733Z,13.59
2018-04-10T03:40:35.568Z,13.51
2018-04-10T03:41:44.410Z,13.51
2018-04-10T03:42:53.782Z,13.46
2018-04-10T03:44:02.615Z,13.51
2018-04-10T03:45:11.551Z,13.66
2018-04-10T03:46:20.396Z,13.51
2018-04-10T03:47:29.222Z,13.49
2018-04-10T03:48:38.056Z,13.42
2018-04-10T03:49:46.895Z,13.6
2018-04-10T03:50:55.825Z,13.51
2018-04-10T03:52:04.935Z,13.46
2018-04-10T03:53:14.059Z,13.48
2018-04-10T03:54:22.894Z,13.62
2018-04-10T03:55:31.734Z,13.54
2018-04-10T03:56:40.715Z,13.51
2018-04-10T03:57:49.549Z,13.46
2018-04-10T03:58:58.383Z,13.49
2018-04-10T04:00:07.219Z,13.42
2018-04-10T04:01:16.052Z,13.51
2018-04-10T04:02:24.887Z,13.49
2018-04-10T04:03:33.719Z,13.45
2018-04-10T04:04:42.554Z,13.44
2018-04-10T04:05:51.386Z,13.45
2018-04-10T04:07:00.228Z,13.39
2018-04-10T04:08:09.385Z,13.29
2018-04-10T04:09:18.220Z,13.33
2018-04-10T04:10:27.054Z,13.33
2018-04-10T04:11:36.169Z,13.38
2018-04-10T04:12:45.005Z,13.39
2018-04-10T04:13:53.942Z,13.39
2018-04-10T04:15:02.774Z,13.38
2018-04-10T04:16:11.608Z,13.33
2018-04-10T04:17:20.441Z,13.36
2018-04-10T04:18:29.274Z,13.33
2018-04-10T04:19:38.106Z,13.38
2018-04-10T04:20:46.939Z,13.25
2018-04-10T04:21:55.773Z,13.29
2018-04-10T04:23:04.607Z,13.36
2018-04-10T04:24:13.439Z,13.26
2018-04-10T04:25:22.322Z,13.26
2018-04-10T04:26:31.156Z,13.3
2018-04-10T04:27:39.989Z,13.3
2018-04-10T04:28:48.821Z,13.26
2018-04-10T04:29:57.660Z,13.22
2018-04-10T04:31:06.592Z,13.12
2018-04-10T04:32:15.426Z,13.15
2018-04-10T04:33:24.262Z,13.15
2018-04-10T04:34:33.103Z,13.15
2018-04-10T04:35:41.931Z,13.17
2018-04-10T04:36:50.817Z,13.19
2018-04-10T04:37:59.652Z,13.2
2018-04-10T04:39:08.485Z,13.19
2018-04-10T04:40:17.318Z,13.22
2018-04-10T04:41:26.153Z,13.17
2018-04-10T04:42:35.241Z,13.11
2018-04-10T04:43:44.349Z,13.1
2018-04-10T04:44:53.182Z,13.03
2018-04-10T04:46:02.017Z,13.11
2018-04-10T04:47:10.850Z,13.08
2018-04-10T04:48:20.058Z,13.14
2018-04-10T04:49:29.165Z,13.08
2018-04-10T04:50:37.996Z,13.15
2018-04-10T04:51:46.829Z,13.05
2018-04-10T04:52:55.664Z,13.15
2018-04-10T04:55:45.590Z,13.1
2018-04-10T04:56:54.710Z,13.11
2018-04-10T04:58:03.550Z,13.04
2018-04-10T04:59:12.583Z,13.11
2018-04-10T05:00:21.423Z,13.15
2018-04-10T05:01:30.304Z,13.03
2018-04-10T05:02:39.411Z,13.17
2018-04-10T05:03:48.246Z,13.07
2018-04-10T05:04:57.355Z,13.03
2018-04-10T05:06:06.184Z,13.04
2018-04-10T05:07:15.294Z,13.07
2018-04-10T05:08:24.148Z,13.15
2018-04-10T05:09:32.964Z,13.1
2018-04-10T05:10:41.800Z,13.1
2018-04-10T05:11:50.914Z,13.14
2018-04-10T05:12:59.748Z,13.03
2018-04-10T05:14:08.584Z,13.17
2018-04-10T05:15:17.416Z,13.05
2018-04-10T05:16:26.254Z,13.1
2018-04-10T05:17:35.088Z,13.14
2018-04-10T05:18:43.925Z,13.04
2018-04-10T05:19:52.757Z,13.11
2018-04-10T05:21:01.592Z,13.05
2018-04-10T05:22:10.428Z,13.14
2018-04-10T05:23:19.265Z,13.15
2018-04-10T05:24:28.104Z,13.2
2018-04-10T05:25:36.937Z,13.25
2018-04-10T05:26:45.770Z,13.17
2018-04-10T05:27:54.605Z,13.23
2018-04-10T05:29:03.440Z,13.15
2018-04-10T05:30:12.276Z,13.14
2018-04-10T05:31:21.162Z,13.14
2018-04-10T05:32:29.997Z,13.14
2018-04-10T05:33:39.103Z,13.14
2018-04-10T05:34:47.936Z,13.3
2018-04-10T05:35:56.771Z,13.14
2018-04-10T05:37:06.031Z,13.19
2018-04-10T05:38:14.865Z,13.17
2018-04-10T05:39:23.700Z,13.25
2018-04-10T05:40:32.533Z,13.25
2018-04-10T05:41:41.374Z,13.28
2018-04-10T05:42:50.301Z,13.26
2018-04-10T05:43:59.188Z,13.26
2018-04-10T05:45:08.046Z,13.19
2018-04-10T05:46:16.881Z,13.29
2018-04-10T05:47:25.720Z,13.33
2018-04-10T05:48:34.553Z,13.32
2018-04-10T05:49:43.389Z,13.36
2018-04-10T05:50:52.222Z,13.23
2018-04-10T05:52:01.055Z,13.33
2018-04-10T05:53:10.231Z,13.32
2018-04-10T05:54:19.062Z,13.29
2018-04-10T05:55:28.174Z,13.33
2018-04-10T05:56:37.011Z,13.39
2018-04-10T05:57:46.121Z,13.52
2018-04-10T05:58:54.956Z,13.49
2018-04-10T06:00:03.938Z,13.42
2018-04-10T06:01:12.772Z,13.44
2018-04-10T06:02:21.606Z,13.42
2018-04-10T06:03:30.438Z,13.48
2018-04-10T06:04:39.271Z,13.49
2018-04-10T06:05:48.306Z,13.55
2018-04-10T06:06:57.144Z,13.59
2018-04-10T06:08:05.977Z,13.63
2018-04-10T06:09:14.812Z,13.57
2018-04-10T06:10:23.644Z,13.54
2018-04-10T06:11:32.530Z,13.55
2018-04-10T06:12:41.364Z,13.54
2018-04-10T06:13:50.200Z,13.57
2018-04-10T06:14:59.045Z,13.59
2018-04-10T06:16:08.155Z,13.55
2018-04-10T06:17:16.990Z,13.66
2018-04-10T06:18:25.825Z,13.73
2018-04-10T06:19:34.660Z,13.66
2018-04-10T06:20:43.498Z,13.63
2018-04-10T06:21:52.333Z,13.67
2018-04-10T06:23:01.616Z,13.64
2018-04-10T06:24:10.451Z,13.78
2018-04-10T06:25:19.285Z,13.7
2018-04-10T06:26:28.119Z,13.71
2018-04-10T06:27:36.952Z,13.73
2018-04-10T06:28:45.982Z,13.77
2018-04-10T06:29:55.089Z,13.82
2018-04-10T06:31:03.921Z,13.81
2018-04-10T06:32:13.028Z,13.73
2018-04-10T06:33:21.863Z,13.82
2018-04-10T06:34:30.697Z,13.78
2018-04-10T06:35:39.804Z,13.92
2018-04-10T06:36:48.636Z,13.95
2018-04-10T06:37:57.467Z,14.02
2018-04-10T06:39:06.303Z,13.96
2018-04-10T06:40:15.561Z,14.04
2018-04-10T06:41:24.400Z,14.02
2018-04-10T06:42:33.232Z,14.06
2018-04-10T06:43:42.064Z,14.09
2018-04-10T06:44:50.901Z,14.02
2018-04-10T06:46:00.259Z,14.12
2018-04-10T06:47:09.091Z,14.15
2018-04-10T06:48:17.925Z,14.1
2018-04-10T06:49:26.759Z,14.14
2018-04-10T06:50:35.596Z,14.18
2018-04-10T06:51:44.482Z,14.21
2018-04-10T06:52:53.356Z,14.29
2018-04-10T06:54:02.154Z,14.27
2018-04-10T06:55:10.987Z,14.25
2018-04-10T06:56:19.822Z,14.29
2018-04-10T06:57:28.987Z,14.4
2018-04-10T06:58:37.823Z,14.39
2018-04-10T06:59:46.660Z,14.43
2018-04-10T07:00:55.771Z,14.54
2018-04-10T07:02:04.603Z,14.52
2018-04-10T07:03:13.638Z,14.6
2018-04-10T07:04:22.478Z,14.55
2018-04-10T07:05:31.304Z,14.51
2018-04-10T07:06:40.137Z,14.57
2018-04-10T07:07:48.972Z,14.61
2018-04-10T07:08:57.862Z,14.6
2018-04-10T07:10:06.703Z,14.7
2018-04-10T07:11:15.530Z,14.62
2018-04-10T07:12:24.365Z,14.61
2018-04-10T07:13:33.204Z,14.6
2018-04-10T07:14:42.139Z,14.75
2018-04-10T07:15:50.976Z,14.83
2018-04-10T07:16:59.815Z,14.81
2018-04-10T07:18:08.933Z,14.83
2018-04-10T07:19:17.768Z,14.75
2018-04-10T07:20:26.705Z,14.81
2018-04-10T07:21:35.538Z,14.8
2018-04-10T07:22:44.375Z,14.81
2018-04-10T07:23:53.489Z,14.77
2018-04-10T07:25:02.323Z,14.86
2018-04-10T07:26:11.215Z,14.94
2018-04-10T07:27:20.055Z,14.99
2018-04-10T07:28:28.889Z,15.01
2018-04-10T07:29:37.722Z,15.07
2018-04-10T07:30:46.554Z,15.13
2018-04-10T07:31:55.489Z,15.19
2018-04-10T07:33:04.328Z,15.23
2018-04-10T07:34:13.168Z,15.29
2018-04-10T07:35:21.999Z,15.28
2018-04-10T07:36:31.122Z,15.23
2018-04-10T07:37:40.108Z,15.35
2018-04-10T07:38:48.943Z,15.34
2018-04-10T07:39:57.831Z,15.51
2018-04-10T07:41:06.669Z,15.53
2018-04-10T07:42:15.504Z,15.51
2018-04-10T07:43:24.815Z,15.64
2018-04-10T07:44:33.651Z,15.65
2018-04-10T07:45:42.757Z,15.69
2018-04-10T07:46:51.870Z,15.72
2018-04-10T07:48:00.708Z,15.69
2018-04-10T07:49:09.692Z,15.84
2018-04-10T07:50:18.528Z,15.76
2018-04-10T07:51:27.372Z,15.93
2018-04-10T07:52:36.203Z,15.94
2018-04-10T07:53:45.044Z,16.01
2018-04-10T07:54:53.930Z,16
2018-04-10T07:56:02.768Z,16.14
2018-04-10T07:57:11.877Z,16.15
2018-04-10T07:58:20.713Z,16.12
2018-04-10T07:59:29.550Z,16.31
2018-04-10T08:00:38.459Z,16.35
2018-04-10T08:01:47.271Z,16.38
2018-04-10T08:02:56.109Z,16.42
2018-04-10T08:04:04.946Z,16.48
2018-04-10T08:05:13.785Z,16.56
2018-04-10T08:06:22.721Z,16.61
2018-04-10T08:07:31.830Z,16.71
2018-04-10T08:08:40.664Z,16.75
2018-04-10T08:09:49.505Z,16.75
2018-04-10T08:10:58.345Z,16.81
2018-04-10T08:12:07.380Z,16.78
2018-04-10T08:13:16.221Z,16.81
2018-04-10T08:14:25.057Z,16.85
2018-04-10T08:15:33.907Z,16.76
2018-04-10T08:16:42.732Z,16.88
2018-04-10T08:17:51.773Z,17.03
2018-04-10T08:19:00.611Z,16.93
2018-04-10T08:20:09.450Z,17.03
2018-04-10T08:21:18.561Z,17
2018-04-10T08:22:27.397Z,17.07
2018-04-10T08:23:36.387Z,17.14
2018-04-10T08:24:45.221Z,17.15
2018-04-10T08:25:54.610Z,17.18
2018-04-10T08:27:03.727Z,17.22
2018-04-10T08:28:12.564Z,17.19
2018-04-10T08:29:21.551Z,17.21
2018-04-10T08:30:30.391Z,17.26
2018-04-10T08:31:39.502Z,17.34
2018-04-10T08:32:48.339Z,17.36
2018-04-10T08:33:57.179Z,17.33
2018-04-10T08:35:06.073Z,17.4
2018-04-10T08:36:14.905Z,17.41
2018-04-10T08:37:23.741Z,17.4
2018-04-10T08:38:32.580Z,17.48
2018-04-10T08:39:41.415Z,17.49
2018-04-10T08:40:50.405Z,17.55
2018-04-10T08:41:59.242Z,17.54
2018-04-10T08:43:08.076Z,17.55
2018-04-10T08:44:16.917Z,17.56
2018-04-10T08:45:25.758Z,17.54
2018-04-10T08:46:34.642Z,17.56
2018-04-10T08:47:43.478Z,17.66
2018-04-10T08:48:52.317Z,17.72
2018-04-10T08:50:01.430Z,17.77
2018-04-10T08:51:10.267Z,17.77
2018-04-10T08:52:19.578Z,17.79
2018-04-10T08:53:28.415Z,17.87
2018-04-10T08:54:37.252Z,17.89
2018-04-10T08:55:46.091Z,17.96
2018-04-10T08:56:54.932Z,18
2018-04-10T08:58:03.971Z,18
2018-04-10T08:59:12.814Z,17.95
2018-04-10T09:00:21.928Z,17.97
2018-04-10T09:01:30.762Z,18.08
2018-04-10T09:02:39.598Z,18.25
2018-04-10T09:03:48.862Z,18.21
2018-04-10T09:04:57.698Z,18.2
2018-04-10T09:06:06.538Z,18.2
2018-04-10T09:07:15.376Z,18.33
2018-04-10T09:08:24.213Z,18.27
2018-04-10T09:09:33.756Z,18.29
2018-04-10T09:10:42.593Z,18.32
2018-04-10T09:11:51.432Z,18.39
2018-04-10T09:13:00.264Z,18.45
2018-04-10T09:14:09.156Z,18.41
2018-04-10T09:15:18.414Z,18.51
2018-04-10T09:16:27.252Z,18.54
2018-04-10T09:17:36.369Z,18.57
2018-04-10T09:18:45.210Z,18.6
2018-04-10T09:19:54.046Z,18.63
2018-04-10T09:21:02.934Z,18.75
2018-04-10T09:22:11.767Z,18.81
2018-04-10T09:23:20.602Z,18.82
2018-04-10T09:24:29.440Z,18.85
2018-04-10T09:25:38.280Z,18.91
2018-04-10T09:26:47.116Z,18.91
2018-04-10T09:27:55.959Z,19.06
2018-04-10T09:29:05.094Z,19.1
2018-04-10T09:30:13.910Z,19.11
2018-04-10T09:31:22.741Z,19.07
2018-04-10T09:32:31.595Z,19.06
2018-04-10T09:33:40.706Z,19.19
2018-04-10T09:34:49.533Z,19.26
2018-04-10T09:35:58.376Z,19.26
2018-04-10T09:37:07.207Z,19.25
2018-04-10T09:38:16.475Z,19.21
2018-04-10T09:39:25.339Z,19.31
2018-04-10T09:40:34.150Z,19.23
2018-04-10T09:41:42.992Z,19.25
2018-04-10T09:42:51.831Z,19.37
2018-04-10T09:44:00.923Z,19.4
2018-04-10T09:45:09.759Z,19.47
2018-04-10T09:46:18.597Z,19.54
2018-04-10T09:47:27.439Z,19.51
2018-04-10T09:48:36.277Z,19.55
2018-04-10T09:49:45.267Z,19.43
2018-04-10T09:50:54.108Z,19.55
2018-04-10T09:52:03.218Z,19.63
2018-04-10T09:53:12.328Z,19.46
2018-04-10T09:54:21.167Z,19.63
2018-04-10T09:55:30.312Z,19.68
2018-04-10T09:56:39.152Z,19.62
2018-04-10T09:57:47.996Z,19.66
2018-04-10T09:58:56.831Z,19.78
2018-04-10T10:00:05.946Z,19.84
2018-04-10T10:01:15.209Z,19.86
2018-04-10T10:02:24.046Z,19.96
2018-04-10T10:03:32.889Z,20.1
2018-04-10T10:04:42.274Z,19.98
2018-04-10T10:05:51.109Z,19.99
2018-04-10T10:07:00.424Z,20.05
2018-04-10T10:08:09.263Z,20.14
2018-04-10T10:09:18.374Z,20.1
2018-04-10T10:10:27.213Z,20.14
2018-04-10T10:11:36.052Z,20.08
2018-04-10T10:12:44.908Z,20.06
2018-04-10T10:13:53.756Z,20.16
2018-04-10T10:15:02.848Z,20.14
2018-04-10T10:16:11.688Z,20.26
2018-04-10T10:17:20.527Z,20.24
2018-04-10T10:18:29.362Z,20.31
2018-04-10T10:19:38.199Z,20.33
2018-04-10T10:20:47.039Z,20.36
2018-04-10T10:21:55.877Z,20.5
2018-04-10T10:23:04.714Z,20.5
2018-04-10T10:24:13.653Z,20.5
2018-04-10T10:25:22.500Z,20.48
2018-04-10T10:26:31.609Z,20.51
2018-04-10T10:27:40.453Z,20.61
2018-04-10T10:28:49.290Z,20.54
2018-04-10T10:29:58.602Z,20.7
2018-04-10T10:31:07.443Z,20.66
2018-04-10T10:32:16.281Z,20.85
2018-04-10T10:33:25.120Z,20.8
2018-04-10T10:34:33.959Z,20.89
2018-04-10T10:35:42.852Z,20.88
2018-04-10T10:36:51.963Z,20.89
2018-04-10T10:38:00.802Z,20.95
2018-04-10T10:39:09.937Z,20.97
2018-04-10T10:40:18.760Z,21.06
2018-04-10T10:41:27.698Z,21.14
2018-04-10T10:42:36.537Z,21.09
2018-04-10T10:43:45.660Z,21.17
2018-04-10T10:44:54.501Z,21.19
2018-04-10T10:46:03.338Z,21.29
2018-04-10T10:47:12.374Z,21.46
2018-04-10T10:48:21.212Z,21.46
2018-04-10T10:49:30.052Z,21.49
2018-04-10T10:50:39.165Z,21.44
2018-04-10T10:51:48.008Z,21.49
2018-04-10T10:52:57.096Z,21.49
2018-04-10T10:54:05.935Z,21.4
2018-04-10T10:55:14.774Z,21.44
2018-04-10T10:56:23.613Z,21.46
2018-04-10T10:57:32.452Z,21.49
2018-04-10T10:58:41.619Z,21.52
2018-04-10T10:59:50.459Z,21.64
2018-04-10T11:00:59.301Z,21.65
2018-04-10T11:02:08.139Z,21.69
2018-04-10T11:03:16.978Z,21.77
2018-04-10T11:04:25.969Z,21.77
2018-04-10T11:05:34.810Z,21.83
2018-04-10T11:06:43.648Z,21.84
2018-04-10T11:07:52.547Z,21.92
2018-04-10T11:09:01.329Z,22.03
2018-04-10T11:10:10.418Z,22.03
2018-04-10T11:11:19.258Z,22.05
2018-04-10T11:12:28.101Z,22.03
2018-04-10T11:13:36.942Z,22.06
2018-04-10T11:14:45.783Z,22
2018-04-10T11:15:54.875Z,22.07
2018-04-10T11:17:03.719Z,22.09
2018-04-10T11:18:12.558Z,22.21
2018-04-10T11:19:21.396Z,22.21
2018-04-10T11:20:30.296Z,22.33
2018-04-10T11:21:39.076Z,22.3
2018-04-10T11:22:47.916Z,22.36
2018-04-10T11:23:57.034Z,22.4
2018-04-10T11:25:06.156Z,22.46
2018-04-10T11:26:14.998Z,22.55
2018-04-10T11:27:23.989Z,22.58
2018-04-10T11:28:32.829Z,22.64
2018-04-10T11:29:41.677Z,22.67
2018-04-10T11:30:51.075Z,22.62
2018-04-10T11:32:00.189Z,22.61
2018-04-10T11:33:09.280Z,22.7
2018-04-10T11:34:18.397Z,22.61
2018-04-10T11:35:27.238Z,22.61
2018-04-10T11:36:36.509Z,22.67
2018-04-10T11:37:45.349Z,22.64
2018-04-10T11:38:54.796Z,22.68
2018-04-10T11:40:03.982Z,22.86
2018-04-10T11:41:12.822Z,22.85
2018-04-10T11:42:21.665Z,22.98
2018-04-10T11:43:30.541Z,22.95
2018-04-10T11:44:39.648Z,22.92
2018-04-10T11:45:48.490Z,22.97
2018-04-10T11:46:57.336Z,22.94
2018-04-10T11:48:06.453Z,23.01
2018-04-10T11:49:15.296Z,23.07
2018-04-10T11:50:24.295Z,23.12
2018-04-10T11:51:33.135Z,23.13
2018-04-10T11:52:41.983Z,23.25
2018-04-10T11:53:50.900Z,23.33
2018-04-10T11:54:59.890Z,23.46
2018-04-10T11:56:08.783Z,23.58
2018-04-10T11:57:17.624Z,23.51
2018-04-10T11:58:26.467Z,23.65
2018-04-10T11:59:35.581Z,23.61
2018-04-10T12:00:44.424Z,23.7
2018-04-10T12:01:53.406Z,23.73
2018-04-10T12:03:02.582Z,23.76
2018-04-10T12:04:11.439Z,23.95
2018-04-10T12:05:20.280Z,23.91
2018-04-10T12:06:29.231Z,23.98
2018-04-10T12:07:38.175Z,23.98
2018-04-10T12:08:47.018Z,23.94
2018-04-10T12:09:55.863Z,24.1
2018-04-10T12:11:04.709Z,24.24
2018-04-10T12:12:13.827Z,24.16
2018-04-10T12:13:22.821Z,24.3
2018-04-10T12:14:31.665Z,24.35
2018-04-10T12:15:40.516Z,24.28
2018-04-10T12:16:49.362Z,24.3
2018-04-10T12:17:58.207Z,24.4
2018-04-10T12:19:07.156Z,24.4
2018-04-10T12:20:16.014Z,24.39
2018-04-10T12:21:24.861Z,24.55
2018-04-10T12:22:33.707Z,24.62
2018-04-10T12:23:42.553Z,24.69
2018-04-10T12:24:51.723Z,24.68
2018-04-10T12:26:00.574Z,24.76
2018-04-10T12:27:09.417Z,24.8
2018-04-10T12:28:18.264Z,24.85
2018-04-10T12:29:27.109Z,24.99
2018-04-10T12:30:36.214Z,25.06
2018-04-10T12:31:45.055Z,25.08
2018-04-10T12:32:53.903Z,25.13
2018-04-10T12:34:03.031Z,25.09
2018-04-10T12:35:11.880Z,25.18
2018-04-10T12:36:20.829Z,25.39
2018-04-10T12:37:29.678Z,25.2
2018-04-10T12:38:38.531Z,25.21
2018-04-10T12:39:47.374Z,25.25
2018-04-10T12:40:56.220Z,25.39
2018-04-10T12:42:05.116Z,25.13
2018-04-10T12:43:13.964Z,25.43
2018-04-10T12:44:22.811Z,25.47
2018-04-10T12:45:31.660Z,25.38
2018-04-10T12:46:40.507Z,25.43
2018-04-10T12:47:49.828Z,25.28
2018-04-10T12:48:58.682Z,25.18
2018-04-10T12:50:07.530Z,25.13
2018-04-10T12:51:16.381Z,25.09
2018-04-10T12:52:25.232Z,25
2018-04-10T12:53:34.231Z,25
2018-04-10T12:54:43.084Z,25.15
2018-04-10T12:55:51.930Z,25.05
2018-04-10T12:57:00.775Z,25.09
2018-04-10T12:58:09.623Z,24.99
2018-04-10T12:59:18.574Z,24.91
2018-04-10T13:00:27.424Z,24.87
2018-04-10T13:01:36.271Z,24.8
2018-04-10T13:02:45.121Z,24.95
2018-04-10T13:03:54.245Z,25.08
2018-04-10T13:05:03.190Z,25.14
2018-04-10T13:06:12.040Z,25.32
2018-04-10T13:07:20.881Z,25.42
2018-04-10T13:08:29.726Z,25.4
2018-04-10T13:09:38.844Z,25.4
2018-04-10T13:10:47.842Z,25.62
2018-04-10T13:11:56.690Z,25.79
2018-04-10T13:13:05.536Z,25.67
2018-04-10T13:14:14.391Z,25.65
2018-04-10T13:15:23.787Z,25.64
2018-04-10T13:16:32.792Z,25.79
2018-04-10T13:17:41.640Z,25.87
2018-04-10T13:18:50.504Z,25.94
2018-04-10T13:19:59.352Z,25.83
2018-04-10T13:21:08.201Z,25.92
2018-04-10T13:22:17.147Z,25.8
2018-04-10T13:23:25.995Z,25.8
2018-04-10T13:24:34.842Z,25.88
2018-04-10T13:25:43.689Z,25.85
2018-04-10T13:26:52.537Z,25.98
2018-04-10T13:28:01.537Z,26.06
2018-04-10T13:29:10.384Z,26.17
2018-04-10T13:30:19.233Z,26.1
2018-04-10T13:31:28.360Z,26.09
2018-04-10T13:32:37.235Z,26.18
2018-04-10T13:33:46.146Z,26.12
2018-04-10T13:34:55.032Z,26.15
2018-04-10T13:36:03.934Z,26.17
2018-04-10T13:37:12.789Z,26.33
2018-04-10T13:38:21.634Z,26.52
2018-04-10T13:39:30.583Z,26.51
2018-04-10T13:40:39.429Z,26.52
2018-04-10T13:41:48.280Z,26.67
2018-04-10T13:42:57.129Z,26.8
2018-04-10T13:44:05.980Z,26.77
2018-04-10T13:45:14.879Z,26.82
2018-04-10T13:46:23.729Z,27.02
2018-04-10T13:47:32.578Z,27.1
2018-04-10T13:48:41.426Z,27.1
2018-04-10T13:49:50.278Z,27.14
2018-04-10T13:50:59.174Z,27.1
2018-04-10T13:52:08.021Z,27.21
2018-04-10T13:53:16.871Z,27.37
2018-04-10T13:54:26.090Z,27.49
2018-04-10T13:55:34.941Z,27.4
2018-04-10T13:56:43.893Z,27.37
2018-04-10T13:57:52.748Z,27.21
2018-04-10T13:59:01.872Z,27.22
2018-04-10T14:00:10.721Z,27.21
2018-04-10T14:01:19.571Z,27.21
2018-04-10T14:02:28.673Z,27.17
2018-04-10T14:03:37.802Z,26.92
2018-04-10T14:04:46.933Z,26.72
2018-04-10T14:05:56.619Z,26.77
2018-04-10T14:07:05.472Z,26.81
2018-04-10T14:08:14.577Z,26.92
2018-04-10T14:09:23.426Z,27.06
2018-04-10T14:10:32.553Z,27.09
2018-04-10T14:11:41.402Z,27.27
2018-04-10T14:12:50.254Z,27.03
2018-04-10T14:13:59.205Z,27.04
2018-04-10T14:15:08.057Z,27.04
2018-04-10T14:16:16.907Z,27
2018-04-10T14:17:25.754Z,26.92
2018-04-10T14:18:34.607Z,27.04
2018-04-10T14:19:43.509Z,27.21
2018-04-10T14:20:52.362Z,27.22
2018-04-10T14:22:01.215Z,27.18
2018-04-10T14:23:10.066Z,27.27
2018-04-10T14:24:18.917Z,27.21
2018-04-10T14:25:28.021Z,27.32
2018-04-10T14:26:36.870Z,27.25
2018-04-10T14:27:45.720Z,27.41
2018-04-10T14:28:54.572Z,27.46
2018-04-10T14:30:03.437Z,27.44
2018-04-10T14:31:12.531Z,27.36
2018-04-10T14:32:21.653Z,27.27
2018-04-10T14:33:30.506Z,27.25
2018-04-10T14:34:39.360Z,27.24
2018-04-10T14:35:48.211Z,27.12
2018-04-10T14:36:57.319Z,27.19
2018-04-10T14:38:06.851Z,27.13
2018-04-10T14:39:15.703Z,27.07
2018-04-10T14:40:24.552Z,26.92
2018-04-10T14:41:33.439Z,26.95
2018-04-10T14:42:42.289Z,26.82
2018-04-10T14:43:51.156Z,26.82
2018-04-10T14:45:00.006Z,26.82
2018-04-10T14:46:08.859Z,26.84
2018-04-10T14:47:17.716Z,26.81
2018-04-10T14:48:26.556Z,26.81
2018-04-10T14:49:35.965Z,26.75
2018-04-10T14:50:44.817Z,26.81
2018-04-10T14:51:53.668Z,26.85
2018-04-10T14:53:02.519Z,26.76